Time;durP1;ratioP1;P1;durP2;ratioP2;P2;SDS_P1;SDS_P2;PMS_P1;PMS_P2;Temp;Humidity;BMP_temperature;BMP_pressure;BME280_temperature;BME280_humidity;BME280_pressure;Samples;Min_cycle;Max_cycle;Signal;HPM_P1;HPM_P2
2021/08/22 00:02:06;;;;;;;9.32;8.18;;;;;;;;;;5112534;28;20093;-86
2021/08/22 00:04:33;;;;;;;9.25;7.45;;;;;;;;;;5101203;28;20048;-86
2021/08/22 00:06:59;;;;;;;8.85;7.80;;;;;;;;;;5098120;28;20055;-85
2021/08/22 00:09:26;;;;;;;8.57;7.72;;;;;;;;;;5099258;28;20093;-85
2021/08/22 00:11:53;;;;;;;9.60;7.68;;;;;;;;;;5098316;28;20051;-85
2021/08/22 00:14:20;;;;;;;9.52;7.50;;;;;;;;;;5118354;28;20237;-86
2021/08/22 00:16:48;;;;;;;9.43;8.05;;;;;;;;;;5118601;28;20048;-85
2021/08/22 00:19:15;;;;;;;9.13;7.47;;;;;;;;;;5121957;28;20058;-84
2021/08/22 00:21:42;;;;;;;8.90;7.50;;;;;;;;;;5118562;28;20093;-85
2021/08/22 00:24:08;;;;;;;8.95;7.35;;;;;;;;;;5120271;28;20468;-86
2021/08/22 00:26:35;;;;;;;9.43;8.13;;;;;;;;;;5121384;28;20055;-85
2021/08/22 00:29:02;;;;;;;9.57;8.57;;;;;;;;;;5121811;28;20130;-86
2021/08/22 00:31:29;;;;;;;9.35;8.35;;;;;;;;;;5125278;28;20043;-85
2021/08/22 00:33:57;;;;;;;9.30;7.95;;;;;;;;;;5126520;28;20093;-85
2021/08/22 00:36:24;;;;;;;8.50;7.47;;;;;;;;;;5120305;28;20097;-85
2021/08/22 00:38:51;;;;;;;7.03;6.25;;;;;;;;;;5120576;28;20051;-85
2021/08/22 00:41:17;;;;;;;9.57;6.95;;;;;;;;;;5120308;28;20051;-85
2021/08/22 00:43:50;;;;;;;7.32;6.18;;;;;;;;;;5120138;28;20047;-86
2021/08/22 00:46:18;;;;;;;7.95;7.15;;;;;;;;;;5119013;28;20052;-85
2021/08/22 00:48:46;;;;;;;8.23;7.22;;;;;;;;;;5119790;28;20052;-86
2021/08/22 01:03:58;;;;;;;7.68;5.97;;;;;;;;;;5091747;28;20055;-86
2021/08/22 05:38:27;;;;;;;6.82;5.15;;;;;;;;;;5086792;22;20257;-87
2021/08/22 05:40:57;;;;;;;;;;;;;;;;;;5098679;28;20044;-86
2021/08/22 05:43:27;;;;;;;6.22;4.50;;;;;;;;;;5099993;28;20346;-86
2021/08/22 16:40:31;;;;;;;6.20;3.63;;;;;;;;;;4947893;23;20090;-83
2021/08/22 16:43:00;;;;;;;4.70;3.22;;;;;;;;;;4998018;28;20047;-84
2021/08/22 16:45:26;;;;;;;5.32;3.83;;;;;;;;;;4997372;28;20053;-84
2021/08/22 16:47:54;;;;;;;4.78;3.13;;;;;;;;;;4997377;28;20050;-85
2021/08/22 16:50:21;;;;;;;4.57;3.20;;;;;;;;;;4996469;28;20046;-85
2021/08/22 16:52:48;;;;;;;6.28;4.13;;;;;;;;;;4997024;28;20104;-85
2021/08/22 16:55:18;;;;;;;5.78;4.20;;;;;;;;;;4997272;28;20062;-85
2021/08/22 16:57:46;;;;;;;4.93;3.55;;;;;;;;;;4997517;28;20101;-85
2021/08/22 17:00:14;;;;;;;6.50;3.58;;;;;;;;;;4999599;28;20133;-86
2021/08/22 17:02:41;;;;;;;5.70;4.10;;;;;;;;;;5005369;28;20031;-86
2021/08/22 17:05:09;;;;;;;4.88;3.35;;;;;;;;;;4993879;28;20468;-86
2021/08/22 17:07:36;;;;;;;5.47;3.95;;;;;;;;;;4979853;28;20066;-85
2021/08/22 17:10:03;;;;;;;5.43;3.97;;;;;;;;;;4978431;28;20120;-85
2021/08/22 17:12:30;;;;;;;6.03;3.50;;;;;;;;;;4979324;28;20496;-85
2021/08/22 17:14:58;;;;;;;6.20;4.22;;;;;;;;;;4976239;28;20113;-85
2021/08/22 17:17:25;;;;;;;6.00;4.50;;;;;;;;;;4976558;28;20046;-85
2021/08/22 17:19:54;;;;;;;5.95;4.10;;;;;;;;;;4975453;28;20554;-85
2021/08/22 17:22:23;;;;;;;9.77;8.30;;;;;;;;;;4976131;28;20054;-85
2021/08/22 17:24:50;;;;;;;7.22;5.90;;;;;;;;;;4975829;28;20046;-86
2021/08/22 17:27:17;;;;;;;6.55;5.53;;;;;;;;;;4975521;28;20051;-86
2021/08/22 17:29:44;;;;;;;5.07;3.72;;;;;;;;;;4976061;28;20427;-85
2021/08/22 17:32:12;;;;;;;7.70;6.60;;;;;;;;;;4975819;28;20054;-85
2021/08/22 17:34:39;;;;;;;6.95;5.00;;;;;;;;;;4976653;28;20054;-85
2021/08/22 17:37:11;;;;;;;6.18;4.80;;;;;;;;;;4975922;28;20051;-85
2021/08/22 17:39:38;;;;;;;5.78;4.18;;;;;;;;;;4975527;28;20101;-85
2021/08/22 17:42:04;;;;;;;5.72;3.80;;;;;;;;;;4975761;28;20054;-85
2021/08/22 17:44:31;;;;;;;6.07;4.40;;;;;;;;;;4975743;28;20046;-85
2021/08/22 17:46:58;;;;;;;5.80;3.92;;;;;;;;;;4975352;28;20051;-85
2021/08/22 17:49:27;;;;;;;5.47;3.92;;;;;;;;;;4976926;28;20114;-85
2021/08/22 17:51:53;;;;;;;5.47;3.50;;;;;;;;;;4977132;28;20498;-85
2021/08/22 17:54:20;;;;;;;6.45;3.80;;;;;;;;;;4976573;28;20046;-85
2021/08/22 17:56:47;;;;;;;5.07;3.25;;;;;;;;;;4975334;28;20046;-85
2021/08/22 17:59:14;;;;;;;5.15;3.33;;;;;;;;;;4975598;28;20059;-85
2021/08/22 18:01:41;;;;;;;6.53;4.07;;;;;;;;;;4976166;28;20489;-85
2021/08/22 18:04:08;;;;;;;4.75;3.00;;;;;;;;;;4975655;28;20098;-86
2021/08/22 18:06:36;;;;;;;5.32;3.42;;;;;;;;;;4974767;28;20101;-85
2021/08/22 18:09:03;;;;;;;5.32;3.17;;;;;;;;;;4975074;28;20117;-86
2021/08/22 18:11:29;;;;;;;5.50;3.50;;;;;;;;;;4976505;28;20046;-85
2021/08/22 18:13:56;;;;;;;5.15;3.47;;;;;;;;;;4977069;28;20054;-87
2021/08/22 18:16:23;;;;;;;5.57;3.50;;;;;;;;;;4978798;28;20050;-86
2021/08/22 18:18:50;;;;;;;6.68;5.35;;;;;;;;;;4976778;28;20050;-87
2021/08/22 18:21:16;;;;;;;6.32;5.55;;;;;;;;;;4975305;28;20047;-85
2021/08/22 18:23:45;;;;;;;6.38;3.90;;;;;;;;;;4975685;28;20051;-85
2021/08/22 18:26:12;;;;;;;7.35;5.78;;;;;;;;;;4975147;28;20117;-90
2021/08/22 18:28:38;;;;;;;4.93;3.95;;;;;;;;;;4975301;28;20047;-86
2021/08/22 18:31:06;;;;;;;5.15;3.58;;;;;;;;;;4974920;28;20805;-85
2021/08/22 18:33:35;;;;;;;5.75;4.10;;;;;;;;;;4974997;28;20105;-85
2021/08/22 18:36:01;;;;;;;6.43;3.85;;;;;;;;;;4974346;28;20054;-84
2021/08/22 18:38:28;;;;;;;5.90;3.40;;;;;;;;;;4975397;28;20062;-83
2021/08/22 18:40:57;;;;;;;5.72;3.78;;;;;;;;;;4975459;28;20098;-84
2021/08/22 18:43:23;;;;;;;5.90;3.50;;;;;;;;;;4975085;28;20101;-85
2021/08/22 18:45:51;;;;;;;5.40;3.58;;;;;;;;;;4977314;28;20051;-85
2021/08/22 18:48:18;;;;;;;5.80;3.25;;;;;;;;;;4979034;28;20057;-85
2021/08/22 18:50:45;;;;;;;5.72;3.33;;;;;;;;;;4976471;28;20050;-86
2021/08/22 18:53:13;;;;;;;5.88;3.22;;;;;;;;;;4974847;28;20182;-86
2021/08/22 18:55:40;;;;;;;5.30;2.92;;;;;;;;;;4974174;28;20082;-85
2021/08/22 18:58:08;;;;;;;5.28;2.58;;;;;;;;;;4980592;28;20055;-85
2021/08/22 19:00:35;;;;;;;5.70;3.15;;;;;;;;;;4975202;28;20065;-85
2021/08/22 19:03:02;;;;;;;4.25;2.92;;;;;;;;;;4978267;28;20106;-86
2021/08/22 19:05:31;;;;;;;4.32;2.47;;;;;;;;;;4977462;28;20051;-85
2021/08/22 19:07:57;;;;;;;4.20;2.67;;;;;;;;;;4977443;28;20047;-85
2021/08/22 19:10:25;;;;;;;5.50;3.10;;;;;;;;;;4978259;28;20129;-85
2021/08/22 19:12:52;;;;;;;5.65;3.15;;;;;;;;;;4977594;28;20081;-85
2021/08/22 19:15:21;;;;;;;5.03;3.20;;;;;;;;;;4976177;28;20051;-86
2021/08/22 19:17:47;;;;;;;5.45;3.33;;;;;;;;;;4977086;28;20106;-84
2021/08/22 19:20:14;;;;;;;3.45;1.90;;;;;;;;;;4979201;28;20055;-84
2021/08/22 19:22:43;;;;;;;4.07;2.20;;;;;;;;;;4975393;28;20404;-85
2021/08/22 19:25:11;;;;;;;4.28;2.13;;;;;;;;;;4974054;28;20051;-85
2021/08/22 19:27:58;;;;;;;17.90;15.48;;;;;;;;;;4975090;28;20496;-84
2021/08/22 19:30:29;;;;;;;4.90;2.80;;;;;;;;;;5018397;23;21016;-90
2021/08/22 19:32:56;;;;;;;4.55;2.65;;;;;;;;;;5031827;28;20053;-83
2021/08/22 19:35:25;;;;;;;3.95;2.25;;;;;;;;;;5016949;28;20053;-83
2021/08/22 19:37:52;;;;;;;4.05;2.28;;;;;;;;;;5017377;28;20080;-83
2021/08/22 19:40:20;;;;;;;4.30;2.72;;;;;;;;;;5017790;28;20042;-83
2021/08/22 19:42:50;;;;;;;4.93;3.05;;;;;;;;;;5017626;28;20054;-83
2021/08/22 19:45:17;;;;;;;4.18;2.90;;;;;;;;;;5017389;28;20052;-83
2021/08/22 19:47:45;;;;;;;4.38;2.60;;;;;;;;;;5021069;28;20060;-83
2021/08/22 19:50:12;;;;;;;4.20;2.75;;;;;;;;;;5019755;28;20073;-83
2021/08/22 19:52:40;;;;;;;4.15;2.67;;;;;;;;;;5020823;28;20081;-84
2021/08/22 19:55:09;;;;;;;6.43;2.53;;;;;;;;;;5021477;28;20054;-83
2021/08/22 19:57:35;;;;;;;3.67;2.10;;;;;;;;;;5021509;28;20054;-83
2021/08/22 20:00:02;;;;;;;3.50;2.00;;;;;;;;;;5022307;28;20045;-83
2021/08/22 20:02:32;;;;;;;3.38;2.10;;;;;;;;;;5012661;28;20093;-83
2021/08/22 20:05:22;;;;;;;3.70;2.13;;;;;;;;;;5003776;28;20141;-84
2021/08/22 20:07:49;;;;;;;4.80;3.60;;;;;;;;;;4999692;28;20078;-84
2021/08/22 20:10:16;;;;;;;3.75;2.25;;;;;;;;;;5001758;28;20046;-84
2021/08/22 20:12:45;;;;;;;4.68;2.97;;;;;;;;;;4999020;28;20492;-85
2021/08/22 20:15:13;;;;;;;9.35;8.10;;;;;;;;;;5004909;28;20081;-84
2021/08/22 20:17:40;;;;;;;3.67;1.95;;;;;;;;;;5001013;28;20054;-85
2021/08/22 20:20:08;;;;;;;3.80;1.85;;;;;;;;;;5005173;28;20057;-84
2021/08/22 20:22:36;;;;;;;4.25;2.22;;;;;;;;;;5005815;28;20046;-84
2021/08/22 20:25:03;;;;;;;3.15;1.63;;;;;;;;;;5006872;28;20046;-84
2021/08/22 20:27:31;;;;;;;3.53;1.83;;;;;;;;;;5001605;28;20054;-85
2021/08/22 20:29:58;;;;;;;4.32;2.22;;;;;;;;;;5012965;28;20050;-86
2021/08/22 20:32:25;;;;;;;3.88;2.28;;;;;;;;;;5019823;28;20096;-85
2021/08/22 20:34:51;;;;;;;3.30;1.80;;;;;;;;;;5017861;28;20049;-85
2021/08/22 20:37:19;;;;;;;4.40;2.05;;;;;;;;;;5019942;28;20056;-85
2021/08/22 20:39:47;;;;;;;2.88;1.17;;;;;;;;;;5022295;28;20049;-85
2021/08/22 20:42:14;;;;;;;3.33;1.48;;;;;;;;;;5027159;28;20483;-85
2021/08/22 20:44:49;;;;;;;2.30;1.30;;;;;;;;;;4999327;28;20074;-87
2021/08/22 20:47:17;;;;;;;1.70;0.90;;;;;;;;;;4999655;28;20411;-84
2021/08/22 20:49:44;;;;;;;3.58;1.30;;;;;;;;;;5011938;28;20045;-85
2021/08/22 20:52:11;;;;;;;2.42;1.20;;;;;;;;;;5019254;28;20732;-86
2021/08/22 20:54:38;;;;;;;2.25;1.00;;;;;;;;;;5018123;28;20054;-85
2021/08/22 20:57:09;;;;;;;2.00;0.82;;;;;;;;;;5017683;28;20096;-84
2021/08/22 20:59:36;;;;;;;4.40;1.75;;;;;;;;;;5016231;28;20068;-86
2021/08/22 21:02:05;;;;;;;4.07;1.58;;;;;;;;;;5016110;28;20049;-85
2021/08/22 21:04:32;;;;;;;4.05;1.92;;;;;;;;;;5015865;28;20042;-85
2021/08/22 21:06:59;;;;;;;4.60;2.22;;;;;;;;;;5018146;28;20449;-85
2021/08/22 21:09:26;;;;;;;4.38;1.83;;;;;;;;;;5017668;28;20070;-84
2021/08/22 21:11:54;;;;;;;4.28;2.42;;;;;;;;;;5016063;28;20561;-85
2021/08/22 21:14:22;;;;;;;6.05;3.88;;;;;;;;;;5015769;28;20049;-84
2021/08/22 21:16:49;;;;;;;3.80;1.80;;;;;;;;;;5015338;28;20487;-85
2021/08/22 21:19:15;;;;;;;4.30;2.10;;;;;;;;;;5014993;28;20387;-85
2021/08/22 21:21:42;;;;;;;4.57;1.70;;;;;;;;;;5015534;28;20450;-85
2021/08/22 21:24:09;;;;;;;4.47;1.73;;;;;;;;;;5014960;28;20461;-85
2021/08/22 21:26:36;;;;;;;3.95;1.70;;;;;;;;;;5015552;28;20072;-85
2021/08/22 21:29:03;;;;;;;2.75;1.23;;;;;;;;;;5015192;28;20104;-85
2021/08/22 21:31:31;;;;;;;2.08;0.90;;;;;;;;;;5015000;28;20486;-86
2021/08/22 21:33:59;;;;;;;2.22;1.05;;;;;;;;;;5014651;28;20057;-85
2021/08/22 21:36:27;;;;;;;2.10;1.08;;;;;;;;;;5014615;28;20093;-85
2021/08/22 21:38:53;;;;;;;1.67;0.90;;;;;;;;;;5015061;28;20127;-85
2021/08/22 21:41:21;;;;;;;1.65;0.88;;;;;;;;;;5015576;28;20104;-85
2021/08/22 21:43:48;;;;;;;2.45;1.10;;;;;;;;;;5015664;28;20050;-86
2021/08/22 21:46:15;;;;;;;2.28;0.90;;;;;;;;;;5033691;28;20045;-86
2021/08/22 21:48:43;;;;;;;2.30;0.90;;;;;;;;;;5032322;28;20058;-85
2021/08/22 21:51:09;;;;;;;5.97;1.25;;;;;;;;;;5016016;28;20104;-85
2021/08/22 21:53:36;;;;;;;2.33;1.02;;;;;;;;;;5016575;28;20046;-85
2021/08/22 21:56:05;;;;;;;2.35;1.05;;;;;;;;;;5039420;28;20045;-85
2021/08/22 21:58:34;;;;;;;1.88;0.82;;;;;;;;;;5033206;28;20054;-86
2021/08/22 22:01:02;;;;;;;1.63;0.90;;;;;;;;;;5016677;28;20115;-85
2021/08/22 22:03:29;;;;;;;2.72;1.10;;;;;;;;;;4997950;28;20054;-86
2021/08/22 22:05:58;;;;;;;1.80;1.10;;;;;;;;;;4995936;28;20066;-85
2021/08/22 22:08:26;;;;;;;3.08;1.10;;;;;;;;;;4997703;28;20503;-85
2021/08/22 22:10:53;;;;;;;3.50;1.13;;;;;;;;;;4997949;28;20092;-85
2021/08/22 22:13:20;;;;;;;2.75;1.30;;;;;;;;;;5007523;28;20104;-85
2021/08/22 22:15:46;;;;;;;2.70;1.35;;;;;;;;;;5016367;28;20108;-85
2021/08/22 22:18:14;;;;;;;2.47;1.45;;;;;;;;;;5016504;28;20108;-85
2021/08/22 22:20:42;;;;;;;2.75;1.35;;;;;;;;;;5018021;28;20046;-85
2021/08/22 22:23:10;;;;;;;3.35;1.75;;;;;;;;;;5018053;28;20491;-85
2021/08/22 22:25:36;;;;;;;3.15;1.65;;;;;;;;;;5019365;28;20046;-84
2021/08/22 22:28:03;;;;;;;3.22;1.70;;;;;;;;;;5028562;28;20076;-84
2021/08/22 22:30:30;;;;;;;3.60;1.55;;;;;;;;;;5031364;28;20121;-85
2021/08/22 22:32:57;;;;;;;6.85;2.40;;;;;;;;;;5031871;28;20053;-85
2021/08/22 22:35:24;;;;;;;4.15;2.30;;;;;;;;;;5031867;28;20053;-85
2021/08/22 22:37:51;;;;;;;4.05;1.98;;;;;;;;;;5029930;28;20046;-85
2021/08/22 22:40:19;;;;;;;5.35;2.25;;;;;;;;;;5030607;23;20117;-84
2021/08/22 22:42:46;;;;;;;3.45;1.80;;;;;;;;;;5002380;28;20050;-84
2021/08/22 22:45:13;;;;;;;4.25;2.22;;;;;;;;;;5000526;28;20125;-85
2021/08/22 22:47:40;;;;;;;3.25;1.67;;;;;;;;;;5000427;28;20189;-85
2021/08/22 22:50:07;;;;;;;3.42;2.13;;;;;;;;;;4995767;28;20047;-85
2021/08/22 22:52:34;;;;;;;3.53;1.98;;;;;;;;;;4980727;28;20050;-86
2021/08/22 22:55:01;;;;;;;4.10;1.95;;;;;;;;;;4980743;28;20047;-85
2021/08/22 22:57:29;;;;;;;6.25;1.95;;;;;;;;;;4980249;28;20070;-85
2021/08/22 22:59:56;;;;;;;4.53;2.00;;;;;;;;;;4978816;28;20043;-85
2021/08/22 23:02:23;;;;;;;3.38;1.80;;;;;;;;;;4979943;28;20047;-84
2021/08/22 23:04:49;;;;;;;4.78;1.92;;;;;;;;;;4980046;28;20098;-85
2021/08/22 23:07:16;;;;;;;4.07;2.00;;;;;;;;;;4980087;28;20491;-84
2021/08/22 23:09:43;;;;;;;3.35;1.83;;;;;;;;;;4979736;28;20051;-84
2021/08/22 23:12:10;;;;;;;3.63;1.70;;;;;;;;;;4980373;28;20058;-84
2021/08/22 23:14:38;;;;;;;4.07;2.22;;;;;;;;;;4979564;28;20054;-84
2021/08/22 23:17:05;;;;;;;2.97;1.75;;;;;;;;;;4980882;28;20464;-84
2021/08/22 23:19:31;;;;;;;3.67;1.90;;;;;;;;;;4982535;28;20058;-85
2021/08/22 23:21:58;;;;;;;4.38;2.05;;;;;;;;;;4981601;28;20453;-84
2021/08/22 23:24:25;;;;;;;3.53;1.75;;;;;;;;;;4983591;28;20043;-84
2021/08/22 23:26:52;;;;;;;4.25;2.13;;;;;;;;;;4982503;28;20071;-84
2021/08/22 23:29:18;;;;;;;3.92;1.80;;;;;;;;;;4985038;28;20046;-83
2021/08/22 23:31:47;;;;;;;4.05;2.03;;;;;;;;;;4989223;28;20090;-84
2021/08/22 23:34:13;;;;;;;3.83;1.77;;;;;;;;;;4988088;28;20046;-83
2021/08/22 23:36:40;;;;;;;3.05;1.90;;;;;;;;;;4979981;28;20078;-85
2021/08/22 23:39:07;;;;;;;3.60;1.77;;;;;;;;;;4980788;28;20055;-82
2021/08/22 23:41:34;;;;;;;3.40;1.80;;;;;;;;;;4979862;28;20504;-84
2021/08/22 23:44:01;;;;;;;3.13;1.60;;;;;;;;;;4979474;28;20114;-83
2021/08/22 23:46:28;;;;;;;3.42;1.60;;;;;;;;;;4979138;28;20492;-84
2021/08/22 23:48:56;;;;;;;2.65;1.50;;;;;;;;;;4978348;28;20042;-84
2021/08/22 23:51:22;;;;;;;4.53;2.15;;;;;;;;;;4977292;28;20051;-83
2021/08/22 23:53:49;;;;;;;5.43;2.00;;;;;;;;;;4977520;28;20051;-84
2021/08/22 23:56:16;;;;;;;3.25;1.85;;;;;;;;;;4978495;28;20105;-83
2021/08/22 23:58:43;;;;;;;4.68;2.03;;;;;;;;;;4994967;28;20082;-84
